KLM123 EGKK-EHAM
Flight info
| Callsign | KLM123 |
|---|---|
| Flight time | 0h 56m |
| Altitude | 29000 |
| Route | FRANE M604 GASBA M197 REDFA |
| Aircraft | A333/H-SDE3GHIJ2J3J5M1RVWXY/LB2D1 |
Departure
| Time | 2026-05-05 18:13 |
|---|---|
| Airport | London Gatwick Airport (EGKK) |
Arrival
| Time | 2026-05-05 19:09 |
|---|---|
| Airport | Amsterdam Airport Schiphol (EHAM) |
| Time | Latitude | Longitude | Altitude | Speed | Heading |
|---|---|---|---|---|---|
| 2026-05-05 17:19 | 51.15452 | -0.17081 | 207 ft | 0 kts | 348° |
| 2026-05-05 17:56 | 51.15445 | -0.17079 | 217 ft | 3 kts | 330° |
| 2026-05-05 17:56 | 51.15430 | -0.17057 | 218 ft | 3 kts | 283° |
| 2026-05-05 17:56 | 51.15428 | -0.17039 | 215 ft | 0 kts | 262° |
| 2026-05-05 18:00 | 51.15428 | -0.17044 | 207 ft | 1 kts | 262° |
| 2026-05-05 18:00 | 51.15426 | -0.17059 | 207 ft | 2 kts | 261° |
| 2026-05-05 18:00 | 51.15421 | -0.17092 | 207 ft | 4 kts | 253° |
| 2026-05-05 18:01 | 51.15407 | -0.17140 | 219 ft | 6 kts | 243° |
| 2026-05-05 18:01 | 51.15390 | -0.17201 | 212 ft | 7 kts | 248° |
| 2026-05-05 18:01 | 51.15373 | -0.17276 | 220 ft | 8 kts | 250° |
| 2026-05-05 18:01 | 51.15344 | -0.17345 | 218 ft | 8 kts | 219° |
| 2026-05-05 18:02 | 51.15307 | -0.17411 | 218 ft | 8 kts | 247° |
| 2026-05-05 18:02 | 51.15292 | -0.17502 | 216 ft | 9 kts | 255° |
| 2026-05-05 18:02 | 51.15276 | -0.17599 | 213 ft | 9 kts | 256° |
| 2026-05-05 18:02 | 51.15261 | -0.17702 | 218 ft | 10 kts | 257° |
| 2026-05-05 18:03 | 51.15245 | -0.17814 | 220 ft | 11 kts | 257° |
| 2026-05-05 18:03 | 51.15227 | -0.17940 | 217 ft | 12 kts | 258° |
| 2026-05-05 18:03 | 51.15210 | -0.18083 | 212 ft | 14 kts | 259° |
| 2026-05-05 18:03 | 51.15190 | -0.18239 | 217 ft | 15 kts | 259° |
| 2026-05-05 18:04 | 51.15169 | -0.18407 | 220 ft | 16 kts | 259° |
| 2026-05-05 18:04 | 51.15147 | -0.18583 | 212 ft | 17 kts | 258° |
| 2026-05-05 18:04 | 51.15123 | -0.18773 | 210 ft | 18 kts | 258° |
| 2026-05-05 18:04 | 51.15098 | -0.18971 | 220 ft | 18 kts | 258° |
| 2026-05-05 18:05 | 51.15073 | -0.19168 | 217 ft | 18 kts | 258° |
| 2026-05-05 18:05 | 51.15046 | -0.19368 | 215 ft | 19 kts | 258° |
| 2026-05-05 18:05 | 51.15017 | -0.19571 | 216 ft | 19 kts | 256° |
| 2026-05-05 18:05 | 51.14984 | -0.19775 | 220 ft | 19 kts | 256° |
| 2026-05-05 18:06 | 51.14951 | -0.19986 | 215 ft | 20 kts | 256° |
| 2026-05-05 18:06 | 51.14940 | -0.20060 | 216 ft | 20 kts | 257° |
| 2026-05-05 18:06 | 51.14893 | -0.20430 | 212 ft | 21 kts | 259° |
| 2026-05-05 18:06 | 51.14865 | -0.20657 | 206 ft | 21 kts | 258° |
| 2026-05-05 18:07 | 51.14834 | -0.20884 | 207 ft | 21 kts | 258° |
| 2026-05-05 18:07 | 51.14812 | -0.21050 | 215 ft | 7 kts | 258° |
| 2026-05-05 18:07 | 51.14811 | -0.21053 | 215 ft | 0 kts | 258° |
| 2026-05-05 18:10 | 51.14811 | -0.21056 | 206 ft | 1 kts | 258° |
| 2026-05-05 18:10 | 51.14807 | -0.21080 | 215 ft | 3 kts | 255° |
| 2026-05-05 18:10 | 51.14791 | -0.21134 | 218 ft | 8 kts | 238° |
| 2026-05-05 18:11 | 51.14749 | -0.21216 | 215 ft | 12 kts | 225° |
| 2026-05-05 18:11 | 51.14674 | -0.21298 | 210 ft | 15 kts | 201° |
| 2026-05-05 18:11 | 51.14572 | -0.21290 | 216 ft | 15 kts | 153° |
| 2026-05-05 18:11 | 51.14522 | -0.21159 | 214 ft | 14 kts | 90° |
| 2026-05-05 18:12 | 51.14543 | -0.21003 | 218 ft | 17 kts | 77° |
| 2026-05-05 18:12 | 51.14616 | -0.20492 | 217 ft | 83 kts | 77° |
| 2026-05-05 18:12 | 51.14787 | -0.19248 | 218 ft | 145 kts | 78° |
| 2026-05-05 18:12 | 51.15028 | -0.17443 | 535 ft | 177 kts | 78° |
| 2026-05-05 18:13 | 51.15290 | -0.15496 | 1438 ft | 180 kts | 77° |
| 2026-05-05 18:13 | 51.15579 | -0.13407 | 2018 ft | 211 kts | 76° |
| 2026-05-05 18:13 | 51.15925 | -0.10928 | 2587 ft | 242 kts | 76° |
| 2026-05-05 18:13 | 51.16298 | -0.08240 | 3600 ft | 255 kts | 76° |
| 2026-05-05 18:14 | 51.16689 | -0.05399 | 4420 ft | 264 kts | 77° |
| 2026-05-05 18:14 | 51.16878 | -0.02527 | 4870 ft | 264 kts | 86° |
| 2026-05-05 18:14 | 51.16864 | 0.00405 | 5053 ft | 266 kts | 88° |
| 2026-05-05 18:14 | 51.16802 | 0.03360 | 5073 ft | 267 kts | 89° |
| 2026-05-05 18:15 | 51.16736 | 0.06314 | 5086 ft | 267 kts | 89° |
| 2026-05-05 18:15 | 51.16675 | 0.09273 | 5097 ft | 267 kts | 89° |
| 2026-05-05 18:15 | 51.16615 | 0.12224 | 5111 ft | 267 kts | 89° |
| 2026-05-05 18:15 | 51.16568 | 0.15176 | 5123 ft | 267 kts | 88° |
| 2026-05-05 18:16 | 51.16559 | 0.18134 | 5136 ft | 266 kts | 86° |
| 2026-05-05 18:16 | 51.16565 | 0.21082 | 5152 ft | 266 kts | 86° |
| 2026-05-05 18:16 | 51.16571 | 0.24031 | 5164 ft | 266 kts | 86° |
| 2026-05-05 18:16 | 51.16577 | 0.26974 | 5389 ft | 266 kts | 86° |
| 2026-05-05 18:17 | 51.16583 | 0.29903 | 5972 ft | 270 kts | 87° |
| 2026-05-05 18:17 | 51.16585 | 0.32901 | 6761 ft | 271 kts | 87° |
| 2026-05-05 18:17 | 51.16589 | 0.35909 | 7494 ft | 273 kts | 88° |
| 2026-05-05 18:17 | 51.16593 | 0.38965 | 8210 ft | 277 kts | 88° |
| 2026-05-05 18:18 | 51.16596 | 0.42060 | 8917 ft | 282 kts | 88° |
| 2026-05-05 18:18 | 51.16597 | 0.45205 | 9648 ft | 285 kts | 89° |
| 2026-05-05 18:18 | 51.16598 | 0.48386 | 10343 ft | 289 kts | 88° |
| 2026-05-05 18:18 | 51.16861 | 0.51554 | 10976 ft | 289 kts | 69° |
| 2026-05-05 18:19 | 51.17926 | 0.54228 | 11652 ft | 288 kts | 41° |
| 2026-05-05 18:19 | 51.19671 | 0.55780 | 12300 ft | 290 kts | 18° |
| 2026-05-05 18:19 | 51.21634 | 0.56607 | 12890 ft | 293 kts | 13° |
| 2026-05-05 18:19 | 51.23635 | 0.57314 | 13142 ft | 296 kts | 13° |
| 2026-05-05 18:20 | 51.25652 | 0.58021 | 13163 ft | 297 kts | 13° |
| 2026-05-05 18:20 | 51.27647 | 0.58736 | 13149 ft | 298 kts | 13° |
| 2026-05-05 18:20 | 51.29671 | 0.59475 | 13136 ft | 298 kts | 13° |
| 2026-05-05 18:20 | 51.31694 | 0.60221 | 13119 ft | 298 kts | 13° |
| 2026-05-05 18:21 | 51.33715 | 0.60970 | 12991 ft | 298 kts | 13° |
| 2026-05-05 18:21 | 51.35738 | 0.61738 | 12994 ft | 299 kts | 15° |
| 2026-05-05 18:21 | 51.37675 | 0.62945 | 12991 ft | 300 kts | 30° |
| 2026-05-05 18:21 | 51.39323 | 0.65034 | 12992 ft | 313 kts | 48° |
| 2026-05-05 18:22 | 51.40687 | 0.67936 | 12981 ft | 338 kts | 56° |
| 2026-05-05 18:22 | 51.42002 | 0.71189 | 13101 ft | 356 kts | 57° |
| 2026-05-05 18:22 | 51.43338 | 0.74555 | 13686 ft | 358 kts | 57° |
| 2026-05-05 18:22 | 51.44687 | 0.77938 | 14262 ft | 360 kts | 57° |
| 2026-05-05 18:23 | 51.46040 | 0.81317 | 14857 ft | 361 kts | 57° |
| 2026-05-05 18:23 | 51.47387 | 0.84673 | 15377 ft | 364 kts | 57° |
| 2026-05-05 18:23 | 51.48759 | 0.88087 | 15961 ft | 365 kts | 57° |
| 2026-05-05 18:23 | 51.50139 | 0.91522 | 16458 ft | 367 kts | 57° |
| 2026-05-05 18:24 | 51.51527 | 0.94980 | 16872 ft | 370 kts | 56° |
| 2026-05-05 18:24 | 51.52922 | 0.98457 | 17004 ft | 371 kts | 57° |
| 2026-05-05 18:24 | 51.54322 | 1.01954 | 17000 ft | 373 kts | 57° |
| 2026-05-05 18:24 | 51.55726 | 1.05462 | 17001 ft | 373 kts | 58° |
| 2026-05-05 18:25 | 51.57128 | 1.08971 | 16998 ft | 374 kts | 57° |
| 2026-05-05 18:25 | 51.58078 | 1.11352 | 17000 ft | 374 kts | 58° |
| 2026-05-05 18:25 | 51.59944 | 1.16033 | 16998 ft | 375 kts | 57° |
| 2026-05-05 18:25 | 51.61350 | 1.19567 | 16998 ft | 375 kts | 58° |
| 2026-05-05 18:26 | 51.62757 | 1.23106 | 17001 ft | 375 kts | 57° |
| 2026-05-05 18:26 | 51.64163 | 1.26649 | 17001 ft | 375 kts | 58° |
| 2026-05-05 18:26 | 51.65566 | 1.30191 | 17001 ft | 375 kts | 57° |
| 2026-05-05 18:26 | 51.66974 | 1.33748 | 17002 ft | 375 kts | 58° |
| 2026-05-05 18:27 | 51.68359 | 1.37253 | 16998 ft | 375 kts | 58° |
| 2026-05-05 18:27 | 51.69759 | 1.40800 | 16998 ft | 375 kts | 58° |
| 2026-05-05 18:27 | 51.71159 | 1.44353 | 17001 ft | 375 kts | 58° |
| 2026-05-05 18:27 | 51.72556 | 1.47901 | 17002 ft | 375 kts | 58° |
| 2026-05-05 18:28 | 51.75351 | 1.55019 | 17002 ft | 375 kts | 58° |
| 2026-05-05 18:28 | 51.76746 | 1.58578 | 16996 ft | 375 kts | 58° |
| 2026-05-05 18:28 | 51.78139 | 1.62136 | 16996 ft | 375 kts | 58° |
| 2026-05-05 18:29 | 51.79535 | 1.65708 | 16999 ft | 375 kts | 58° |
| 2026-05-05 18:29 | 51.80926 | 1.69273 | 16999 ft | 376 kts | 58° |
| 2026-05-05 18:29 | 51.82323 | 1.72858 | 17001 ft | 377 kts | 58° |
| 2026-05-05 18:29 | 51.83721 | 1.76449 | 16995 ft | 377 kts | 58° |
| 2026-05-05 18:30 | 51.85116 | 1.80037 | 16997 ft | 377 kts | 58° |
| 2026-05-05 18:30 | 51.86512 | 1.83635 | 16998 ft | 377 kts | 58° |
| 2026-05-05 18:30 | 51.87883 | 1.87173 | 16999 ft | 377 kts | 58° |
| 2026-05-05 18:30 | 51.89275 | 1.90769 | 16998 ft | 377 kts | 58° |
| 2026-05-05 18:31 | 51.90666 | 1.94367 | 16999 ft | 377 kts | 58° |
| 2026-05-05 18:31 | 51.92057 | 1.97972 | 16996 ft | 377 kts | 58° |
| 2026-05-05 18:31 | 51.93447 | 2.01577 | 16996 ft | 376 kts | 58° |
| 2026-05-05 18:31 | 51.94831 | 2.05173 | 16997 ft | 376 kts | 58° |
| 2026-05-05 18:32 | 51.96215 | 2.08775 | 16994 ft | 376 kts | 58° |
| 2026-05-05 18:32 | 51.97600 | 2.12384 | 16994 ft | 376 kts | 58° |
| 2026-05-05 18:32 | 51.98983 | 2.15992 | 16997 ft | 376 kts | 58° |
| 2026-05-05 18:32 | 52.00345 | 2.19552 | 16996 ft | 376 kts | 58° |
| 2026-05-05 18:33 | 52.01724 | 2.23160 | 16996 ft | 376 kts | 58° |
| 2026-05-05 18:33 | 52.03101 | 2.26768 | 16997 ft | 377 kts | 58° |
| 2026-05-05 18:33 | 52.04483 | 2.30394 | 16996 ft | 378 kts | 58° |
| 2026-05-05 18:33 | 52.05867 | 2.34032 | 16996 ft | 379 kts | 58° |
| 2026-05-05 18:34 | 52.07253 | 2.37680 | 16993 ft | 379 kts | 58° |
| 2026-05-05 18:34 | 52.08635 | 2.41322 | 16993 ft | 379 kts | 58° |
| 2026-05-05 18:34 | 52.10016 | 2.44965 | 16993 ft | 379 kts | 58° |
| 2026-05-05 18:34 | 52.11396 | 2.48628 | 16992 ft | 379 kts | 59° |
| 2026-05-05 18:35 | 52.12748 | 2.52312 | 16996 ft | 379 kts | 59° |
| 2026-05-05 18:35 | 52.14087 | 2.56001 | 16992 ft | 379 kts | 59° |
| 2026-05-05 18:35 | 52.15425 | 2.59695 | 16993 ft | 379 kts | 59° |
| 2026-05-05 18:35 | 52.16765 | 2.63401 | 16996 ft | 379 kts | 59° |
| 2026-05-05 18:36 | 52.18084 | 2.67051 | 17000 ft | 379 kts | 59° |
| 2026-05-05 18:36 | 52.19422 | 2.70757 | 16998 ft | 379 kts | 59° |
| 2026-05-05 18:36 | 52.20758 | 2.74465 | 16998 ft | 379 kts | 59° |
| 2026-05-05 18:36 | 52.22091 | 2.78167 | 16992 ft | 379 kts | 59° |
| 2026-05-05 18:37 | 52.23426 | 2.81883 | 16998 ft | 379 kts | 59° |
| 2026-05-05 18:37 | 52.24757 | 2.85592 | 16996 ft | 379 kts | 59° |
| 2026-05-05 18:37 | 52.26093 | 2.89317 | 16997 ft | 381 kts | 59° |
| 2026-05-05 18:37 | 52.27434 | 2.93065 | 16995 ft | 383 kts | 59° |
| 2026-05-05 18:38 | 52.28778 | 2.96827 | 16989 ft | 383 kts | 59° |
| 2026-05-05 18:38 | 52.30119 | 3.00587 | 16992 ft | 383 kts | 59° |
| 2026-05-05 18:38 | 52.31439 | 3.04293 | 16993 ft | 383 kts | 59° |
| 2026-05-05 18:38 | 52.32784 | 3.08073 | 16994 ft | 383 kts | 59° |
| 2026-05-05 18:39 | 52.34119 | 3.11833 | 16993 ft | 383 kts | 59° |
| 2026-05-05 18:39 | 52.35455 | 3.15600 | 16994 ft | 383 kts | 60° |
| 2026-05-05 18:39 | 52.36789 | 3.19368 | 16986 ft | 382 kts | 59° |
| 2026-05-05 18:39 | 52.38121 | 3.23136 | 16984 ft | 383 kts | 59° |
| 2026-05-05 18:40 | 52.39454 | 3.26911 | 16987 ft | 383 kts | 60° |
| 2026-05-05 18:40 | 52.40785 | 3.30686 | 16989 ft | 382 kts | 60° |
| 2026-05-05 18:40 | 52.42115 | 3.34465 | 16988 ft | 383 kts | 60° |
| 2026-05-05 18:40 | 52.43443 | 3.38245 | 16987 ft | 382 kts | 60° |
| 2026-05-05 18:41 | 52.44633 | 3.42141 | 16986 ft | 383 kts | 69° |
| 2026-05-05 18:41 | 52.45409 | 3.46250 | 16985 ft | 382 kts | 75° |
| 2026-05-05 18:41 | 52.46038 | 3.50499 | 16983 ft | 383 kts | 77° |
| 2026-05-05 18:41 | 52.46638 | 3.54745 | 16984 ft | 382 kts | 77° |
| 2026-05-05 18:42 | 52.47237 | 3.58993 | 16989 ft | 383 kts | 77° |
| 2026-05-05 18:42 | 52.47841 | 3.63264 | 16985 ft | 386 kts | 77° |
| 2026-05-05 18:42 | 52.48449 | 3.67561 | 16984 ft | 386 kts | 77° |
| 2026-05-05 18:42 | 52.49058 | 3.71860 | 16789 ft | 385 kts | 77° |
| 2026-05-05 18:43 | 52.49663 | 3.76140 | 16233 ft | 385 kts | 77° |
| 2026-05-05 18:43 | 52.50259 | 3.80362 | 16019 ft | 374 kts | 77° |
| 2026-05-05 18:43 | 52.50837 | 3.84473 | 15849 ft | 363 kts | 77° |
| 2026-05-05 18:43 | 52.51393 | 3.88451 | 15706 ft | 352 kts | 77° |
| 2026-05-05 18:44 | 52.51737 | 3.92308 | 15553 ft | 342 kts | 88° |
| 2026-05-05 18:44 | 52.51585 | 3.96145 | 15393 ft | 332 kts | 101° |
| 2026-05-05 18:44 | 52.50906 | 3.99695 | 15234 ft | 322 kts | 115° |
| 2026-05-05 18:44 | 52.49787 | 4.02849 | 14910 ft | 318 kts | 126° |
| 2026-05-05 18:45 | 52.48477 | 4.05768 | 14535 ft | 318 kts | 128° |
| 2026-05-05 18:45 | 52.47133 | 4.08649 | 14154 ft | 317 kts | 128° |
| 2026-05-05 18:45 | 52.45795 | 4.11519 | 13837 ft | 315 kts | 128° |
| 2026-05-05 18:45 | 52.44471 | 4.14369 | 13480 ft | 313 kts | 127° |
| 2026-05-05 18:46 | 52.43167 | 4.17185 | 13194 ft | 308 kts | 127° |
| 2026-05-05 18:46 | 52.41878 | 4.19972 | 12892 ft | 304 kts | 127° |
| 2026-05-05 18:46 | 52.40618 | 4.22698 | 12741 ft | 295 kts | 127° |
| 2026-05-05 18:46 | 52.39515 | 4.25461 | 12581 ft | 287 kts | 112° |
| 2026-05-05 18:47 | 52.39148 | 4.28573 | 12287 ft | 283 kts | 86° |
| 2026-05-05 18:47 | 52.39653 | 4.31629 | 11995 ft | 278 kts | 59° |
| 2026-05-05 18:47 | 52.40920 | 4.33949 | 11701 ft | 274 kts | 33° |
| 2026-05-05 18:47 | 52.42671 | 4.35059 | 11375 ft | 270 kts | 5° |
| 2026-05-05 18:48 | 52.44516 | 4.34745 | 11051 ft | 268 kts | 340° |
| 2026-05-05 18:48 | 52.46223 | 4.33543 | 10722 ft | 268 kts | 333° |
| 2026-05-05 18:48 | 52.47884 | 4.32171 | 10444 ft | 266 kts | 332° |
| 2026-05-05 18:48 | 52.49523 | 4.30792 | 10155 ft | 264 kts | 332° |
| 2026-05-05 18:49 | 52.51156 | 4.29412 | 9870 ft | 262 kts | 332° |
| 2026-05-05 18:49 | 52.52775 | 4.28039 | 9771 ft | 263 kts | 332° |
| 2026-05-05 18:49 | 52.54422 | 4.26633 | 9276 ft | 270 kts | 332° |
| 2026-05-05 18:49 | 52.56084 | 4.25201 | 9008 ft | 266 kts | 332° |
| 2026-05-05 18:50 | 52.57693 | 4.23809 | 8987 ft | 258 kts | 332° |
| 2026-05-05 18:50 | 52.59276 | 4.22436 | 8982 ft | 257 kts | 332° |
| 2026-05-05 18:50 | 52.60859 | 4.21064 | 8979 ft | 257 kts | 332° |
| 2026-05-05 18:50 | 52.62437 | 4.19694 | 8986 ft | 256 kts | 332° |
| 2026-05-05 18:51 | 52.64014 | 4.18323 | 8988 ft | 257 kts | 332° |
| 2026-05-05 18:51 | 52.65591 | 4.16953 | 8982 ft | 253 kts | 332° |
| 2026-05-05 18:51 | 52.67129 | 4.15610 | 8986 ft | 248 kts | 330° |
| 2026-05-05 18:51 | 52.68401 | 4.13803 | 8980 ft | 246 kts | 304° |
| 2026-05-05 18:52 | 52.68972 | 4.11173 | 8980 ft | 247 kts | 274° |
| 2026-05-05 18:52 | 52.68665 | 4.08402 | 8982 ft | 249 kts | 244° |
| 2026-05-05 18:52 | 52.67558 | 4.06234 | 8987 ft | 251 kts | 215° |
| 2026-05-05 18:52 | 52.65929 | 4.05232 | 8979 ft | 254 kts | 185° |
| 2026-05-05 18:53 | 52.64202 | 4.05666 | 8988 ft | 254 kts | 155° |
| 2026-05-05 18:53 | 52.62803 | 4.07414 | 8990 ft | 254 kts | 130° |
| 2026-05-05 18:53 | 52.61749 | 4.09764 | 8983 ft | 255 kts | 123° |
| 2026-05-05 18:53 | 52.60748 | 4.12194 | 8982 ft | 256 kts | 127° |
| 2026-05-05 18:54 | 52.59739 | 4.14604 | 8985 ft | 255 kts | 117° |
| 2026-05-05 18:54 | 52.58987 | 4.17204 | 8849 ft | 257 kts | 113° |
| 2026-05-05 18:54 | 52.58263 | 4.19932 | 8465 ft | 260 kts | 112° |
| 2026-05-05 18:54 | 52.57542 | 4.22628 | 8223 ft | 256 kts | 112° |
| 2026-05-05 18:55 | 52.56831 | 4.25285 | 8001 ft | 252 kts | 112° |
| 2026-05-05 18:55 | 52.55857 | 4.27667 | 7684 ft | 253 kts | 138° |
| 2026-05-05 18:55 | 52.54315 | 4.28987 | 7434 ft | 252 kts | 168° |
| 2026-05-05 18:55 | 52.52572 | 4.29227 | 7152 ft | 251 kts | 180° |
| 2026-05-05 18:56 | 52.50822 | 4.29158 | 6999 ft | 252 kts | 182° |
| 2026-05-05 18:56 | 52.49060 | 4.29047 | 6981 ft | 255 kts | 182° |
| 2026-05-05 18:56 | 52.47285 | 4.28933 | 6973 ft | 254 kts | 182° |
| 2026-05-05 18:56 | 52.45520 | 4.28818 | 6979 ft | 255 kts | 182° |
| 2026-05-05 18:57 | 52.43740 | 4.28704 | 6975 ft | 256 kts | 182° |
| 2026-05-05 18:57 | 52.41961 | 4.28593 | 6972 ft | 255 kts | 182° |
| 2026-05-05 18:57 | 52.40790 | 4.28519 | 6976 ft | 254 kts | 182° |
| 2026-05-05 18:57 | 52.38436 | 4.28368 | 6970 ft | 253 kts | 182° |
| 2026-05-05 18:58 | 52.36690 | 4.28257 | 6965 ft | 253 kts | 182° |
| 2026-05-05 18:58 | 52.34935 | 4.28147 | 6971 ft | 253 kts | 182° |
| 2026-05-05 18:58 | 52.33750 | 4.28072 | 6969 ft | 252 kts | 182° |
| 2026-05-05 18:58 | 52.31997 | 4.27960 | 6836 ft | 254 kts | 182° |
| 2026-05-05 18:59 | 52.30214 | 4.27848 | 6456 ft | 258 kts | 182° |
| 2026-05-05 18:59 | 52.28439 | 4.27736 | 6281 ft | 252 kts | 182° |
| 2026-05-05 18:59 | 52.26689 | 4.27621 | 5974 ft | 252 kts | 182° |
| 2026-05-05 18:59 | 52.24933 | 4.27477 | 5541 ft | 259 kts | 182° |
| 2026-05-05 19:00 | 52.23126 | 4.27293 | 5240 ft | 259 kts | 182° |
| 2026-05-05 19:00 | 52.21361 | 4.27104 | 5112 ft | 251 kts | 182° |
| 2026-05-05 19:00 | 52.19636 | 4.26918 | 4990 ft | 244 kts | 180° |
| 2026-05-05 19:00 | 52.18007 | 4.27336 | 4721 ft | 237 kts | 151° |
| 2026-05-05 19:01 | 52.16759 | 4.28995 | 4300 ft | 232 kts | 118° |
| 2026-05-05 19:01 | 52.16213 | 4.31377 | 4111 ft | 218 kts | 97° |
| 2026-05-05 19:01 | 52.16005 | 4.33733 | 4031 ft | 204 kts | 93° |
| 2026-05-05 19:01 | 52.15845 | 4.35995 | 3769 ft | 200 kts | 91° |
| 2026-05-05 19:02 | 52.15696 | 4.38233 | 3444 ft | 198 kts | 92° |
| 2026-05-05 19:02 | 52.15551 | 4.40446 | 3137 ft | 196 kts | 92° |
| 2026-05-05 19:02 | 52.15403 | 4.42646 | 2801 ft | 195 kts | 92° |
| 2026-05-05 19:02 | 52.15248 | 4.44825 | 2502 ft | 193 kts | 92° |
| 2026-05-05 19:03 | 52.15092 | 4.46994 | 2177 ft | 193 kts | 92° |
| 2026-05-05 19:03 | 52.14963 | 4.49158 | 1960 ft | 190 kts | 84° |
| 2026-05-05 19:03 | 52.15421 | 4.51070 | 1955 ft | 181 kts | 47° |
| 2026-05-05 19:03 | 52.16382 | 4.52361 | 1952 ft | 176 kts | 34° |
| 2026-05-05 19:04 | 52.17376 | 4.53414 | 1948 ft | 166 kts | 32° |
| 2026-05-05 19:04 | 52.18343 | 4.54401 | 1948 ft | 163 kts | 32° |
| 2026-05-05 19:04 | 52.19300 | 4.55386 | 1952 ft | 163 kts | 32° |
| 2026-05-05 19:04 | 52.20261 | 4.56385 | 1957 ft | 163 kts | 32° |
| 2026-05-05 19:05 | 52.21221 | 4.57365 | 1947 ft | 163 kts | 32° |
| 2026-05-05 19:05 | 52.22133 | 4.58294 | 1949 ft | 150 kts | 32° |
| 2026-05-05 19:05 | 52.22994 | 4.59248 | 1946 ft | 150 kts | 41° |
| 2026-05-05 19:05 | 52.23675 | 4.60485 | 1933 ft | 141 kts | 51° |
| 2026-05-05 19:06 | 52.24223 | 4.61782 | 1766 ft | 139 kts | 54° |
| 2026-05-05 19:06 | 52.24738 | 4.63072 | 1557 ft | 133 kts | 54° |
| 2026-05-05 19:06 | 52.25229 | 4.64337 | 1378 ft | 131 kts | 55° |
| 2026-05-05 19:06 | 52.25718 | 4.65588 | 1186 ft | 131 kts | 54° |
| 2026-05-05 19:07 | 52.26207 | 4.66840 | 1009 ft | 130 kts | 54° |
| 2026-05-05 19:07 | 52.26694 | 4.68090 | 823 ft | 132 kts | 55° |
| 2026-05-05 19:07 | 52.27193 | 4.69370 | 658 ft | 134 kts | 54° |
| 2026-05-05 19:07 | 52.27682 | 4.70629 | 466 ft | 127 kts | 52° |
| 2026-05-05 19:08 | 52.28144 | 4.71818 | 313 ft | 122 kts | 52° |
| 2026-05-05 19:08 | 52.28600 | 4.72987 | 152 ft | 122 kts | 51° |
| 2026-05-05 19:08 | 52.29049 | 4.74140 | 28 ft | 115 kts | 58° |
| 2026-05-05 19:08 | 52.29389 | 4.74967 | 22 ft | 53 kts | 60° |
| 2026-05-05 19:09 | 52.29455 | 4.75143 | 17 ft | 10 kts | 56° |
| 2026-05-05 19:09 | 52.29534 | 4.75330 | 19 ft | 29 kts | 56° |
| 2026-05-05 19:09 | 52.29666 | 4.75660 | 20 ft | 35 kts | 49° |
| 2026-05-05 19:09 | 52.29768 | 4.75788 | 19 ft | 0 kts | 30° |
| 2026-05-05 19:10 | 52.29826 | 4.75834 | 20 ft | 7 kts | 28° |
| 2026-05-05 19:10 | 52.29866 | 4.75870 | 17 ft | 0 kts | 29° |
| 2026-05-05 19:12 | 52.29867 | 4.75870 | 17 ft | 1 kts | 29° |
| 2026-05-05 19:12 | 52.29886 | 4.75887 | 16 ft | 5 kts | 29° |
| 2026-05-05 19:12 | 52.29904 | 4.75903 | 16 ft | 0 kts | 29° |
| 2026-05-05 19:12 | 52.29904 | 4.75904 | 16 ft | 1 kts | 29° |
| 2026-05-05 19:13 | 52.29918 | 4.75916 | 16 ft | 4 kts | 29° |
| 2026-05-05 19:13 | 52.29944 | 4.75940 | 16 ft | 5 kts | 31° |
| 2026-05-05 19:13 | 52.29976 | 4.75978 | 16 ft | 7 kts | 40° |
| 2026-05-05 19:13 | 52.30014 | 4.76048 | 16 ft | 10 kts | 52° |
| 2026-05-05 19:14 | 52.30060 | 4.76164 | 15 ft | 14 kts | 61° |
| 2026-05-05 19:14 | 52.30111 | 4.76298 | 18 ft | 14 kts | 58° |
| 2026-05-05 19:14 | 52.30169 | 4.76446 | 17 ft | 16 kts | 58° |
| 2026-05-05 19:14 | 52.30229 | 4.76603 | 18 ft | 16 kts | 58° |
| 2026-05-05 19:15 | 52.30294 | 4.76777 | 15 ft | 19 kts | 57° |
| 2026-05-05 19:15 | 52.30366 | 4.76958 | 14 ft | 19 kts | 57° |
| 2026-05-05 19:15 | 52.30441 | 4.77150 | 14 ft | 20 kts | 59° |
| 2026-05-05 19:15 | 52.30509 | 4.77335 | 15 ft | 19 kts | 58° |
| 2026-05-05 19:16 | 52.30582 | 4.77503 | 19 ft | 17 kts | 44° |
| 2026-05-05 19:16 | 52.30689 | 4.77576 | 17 ft | 17 kts | 8° |
| 2026-05-05 19:16 | 52.30804 | 4.77598 | 17 ft | 17 kts | 6° |
| 2026-05-05 19:16 | 52.30921 | 4.77612 | 16 ft | 17 kts | 2° |
| 2026-05-05 19:17 | 52.31023 | 4.77546 | 16 ft | 16 kts | 313° |
| 2026-05-05 19:17 | 52.31076 | 4.77370 | 12 ft | 18 kts | 279° |
| 2026-05-05 19:17 | 52.31077 | 4.77148 | 7 ft | 21 kts | 271° |
| 2026-05-05 19:17 | 52.31082 | 4.77053 | 5 ft | 2 kts | 279° |
| 2026-05-05 19:18 | 52.31083 | 4.77000 | 4 ft | 7 kts | 265° |
| 2026-05-05 19:18 | 52.31068 | 4.76896 | 2 ft | 12 kts | 245° |
| 2026-05-05 19:18 | 52.31034 | 4.76773 | 0 ft | 12 kts | 292° |
| 2026-05-05 19:18 | 52.31038 | 4.76762 | 0 ft | 0 kts | 295° |
| 2026-05-05 19:20 | 52.31049 | 4.76725 | 1 ft | 10 kts | 296° |
| 2026-05-05 19:20 | 52.31063 | 4.76683 | 1 ft | 3 kts | 298° |
| 2026-05-05 19:20 | 52.31067 | 4.76673 | 0 ft | 0 kts | 300° |